Terminal Aerodrome Forecast
Issued by NWS

Home | Current Version | Previous Version | Graphics & Text | Print | Product List | Glossary On
Versions: 1 2 3 4 5 6 7 8 9 10 11 12 13 14 15 16 17 18 19
250
FTUS43 KICT 150333 AAA
TAFRSL
TAF AMD
KRSL 150333Z 1504/1524 17005KT 1SM BR BKN003
     FM150500 28007KT 1SM BR SCT008 BKN015
     FM150600 30008KT 3/4SM BR OVC025
     FM150800 34012KT P6SM SCT120
     FM152000 36007KT P6SM SKC=

USA.gov is the U.S. government's official web portal to all federal, state and local government web resources and services.